sensor_id;sensor_type;location;lat;lon;timestamp;temperature;humidity
4429;DHT22;2227;47.810;8.810;2023-01-04T04:45:17;8.00;99.90
4429;DHT22;2227;47.810;8.810;2023-01-04T04:47:44;7.80;99.90
4429;DHT22;2227;47.810;8.810;2023-01-04T04:50:11;7.50;99.90
4429;DHT22;2227;47.810;8.810;2023-01-04T04:52:37;7.60;99.90
4429;DHT22;2227;47.810;8.810;2023-01-04T04:55:07;7.60;99.90
4429;DHT22;2227;47.810;8.810;2023-01-04T04:57:33;7.60;99.90
4429;DHT22;2227;47.810;8.810;2023-01-04T05:00:00;7.70;99.90
4429;DHT22;2227;47.810;8.810;2023-01-04T05:02:27;7.80;99.90
4429;DHT22;2227;47.810;8.810;2023-01-04T05:04:54;7.90;99.90
4429;DHT22;2227;47.810;8.810;2023-01-04T05:07:20;7.90;99.90
4429;DHT22;2227;47.810;8.810;2023-01-04T05:09:47;7.80;99.90
4429;DHT22;2227;47.810;8.810;2023-01-04T05:12:14;8.00;99.90
4429;DHT22;2227;47.810;8.810;2023-01-04T05:14:59;8.10;99.90
4429;DHT22;2227;47.810;8.810;2023-01-04T05:17:26;7.90;99.90
4429;DHT22;2227;47.810;8.810;2023-01-04T05:19:52;8.00;99.90
4429;DHT22;2227;47.810;8.810;2023-01-04T05:22:19;8.20;99.90
4429;DHT22;2227;47.810;8.810;2023-01-04T05:24:46;8.20;99.90
4429;DHT22;2227;47.810;8.810;2023-01-04T05:27:12;8.10;99.90
4429;DHT22;2227;47.810;8.810;2023-01-04T05:29:39;8.10;99.90
4429;DHT22;2227;47.810;8.810;2023-01-04T05:32:24;8.00;99.90
4429;DHT22;2227;47.810;8.810;2023-01-04T05:34:51;7.80;99.90
4429;DHT22;2227;47.810;8.810;2023-01-04T05:37:18;7.50;99.90
4429;DHT22;2227;47.810;8.810;2023-01-04T05:39:44;7.60;99.90
4429;DHT22;2227;47.810;8.810;2023-01-04T05:42:11;7.70;99.90
4429;DHT22;2227;47.810;8.810;2023-01-04T05:44:55;7.80;99.90
4429;DHT22;2227;47.810;8.810;2023-01-04T05:47:22;7.80;99.90
4429;DHT22;2227;47.810;8.810;2023-01-04T05:49:50;8.00;99.90
4429;DHT22;2227;47.810;8.810;2023-01-04T05:52:18;7.80;99.90
4429;DHT22;2227;47.810;8.810;2023-01-04T05:54:45;7.90;99.90
4429;DHT22;2227;47.810;8.810;2023-01-04T05:57:12;8.10;99.90
4429;DHT22;2227;47.810;8.810;2023-01-04T05:59:39;8.20;99.90
4429;DHT22;2227;47.810;8.810;2023-01-04T06:02:14;8.30;99.90
4429;DHT22;2227;47.810;8.810;2023-01-04T06:04:41;8.40;99.90
4429;DHT22;2227;47.810;8.810;2023-01-04T06:07:08;8.00;99.90
4429;DHT22;2227;47.810;8.810;2023-01-04T06:09:34;7.60;99.90
4429;DHT22;2227;47.810;8.810;2023-01-04T06:12:01;7.40;99.90
4429;DHT22;2227;47.810;8.810;2023-01-04T06:14:28;7.60;99.90
4429;DHT22;2227;47.810;8.810;2023-01-04T06:16:54;7.40;99.90
4429;DHT22;2227;47.810;8.810;2023-01-04T06:19:21;7.30;99.90
4429;DHT22;2227;47.810;8.810;2023-01-04T06:21:48;7.50;99.90
4429;DHT22;2227;47.810;8.810;2023-01-04T06:24:15;7.60;99.90
4429;DHT22;2227;47.810;8.810;2023-01-04T06:26:42;7.20;99.90
4429;DHT22;2227;47.810;8.810;2023-01-04T06:29:09;7.20;99.90
4429;DHT22;2227;47.810;8.810;2023-01-04T06:31:35;7.20;99.90
4429;DHT22;2227;47.810;8.810;2023-01-04T06:34:02;7.30;99.90
4429;DHT22;2227;47.810;8.810;2023-01-04T06:36:29;7.60;99.90
4429;DHT22;2227;47.810;8.810;2023-01-04T06:38:57;7.30;99.90
4429;DHT22;2227;47.810;8.810;2023-01-04T06:41:24;7.40;99.90
4429;DHT22;2227;47.810;8.810;2023-01-04T06:43:51;7.50;99.90
4429;DHT22;2227;47.810;8.810;2023-01-04T06:46:18;7.50;99.90
4429;DHT22;2227;47.810;8.810;2023-01-04T06:48:45;7.80;99.90
4429;DHT22;2227;47.810;8.810;2023-01-04T06:51:12;8.00;99.90
4429;DHT22;2227;47.810;8.810;2023-01-04T06:53:38;8.00;99.90
4429;DHT22;2227;47.810;8.810;2023-01-04T06:56:06;7.90;99.90
4429;DHT22;2227;47.810;8.810;2023-01-04T06:58:35;7.80;99.90
4429;DHT22;2227;47.810;8.810;2023-01-04T07:01:02;7.70;99.90
4429;DHT22;2227;47.810;8.810;2023-01-04T07:03:29;7.60;99.90
4429;DHT22;2227;47.810;8.810;2023-01-04T07:05:55;7.30;99.90
4429;DHT22;2227;47.810;8.810;2023-01-04T07:08:22;7.40;99.90
4429;DHT22;2227;47.810;8.810;2023-01-04T07:10:49;7.40;99.90
4429;DHT22;2227;47.810;8.810;2023-01-04T07:13:16;7.50;99.90
4429;DHT22;2227;47.810;8.810;2023-01-04T07:15:43;7.70;99.90
4429;DHT22;2227;47.810;8.810;2023-01-04T07:18:10;7.50;99.90
4429;DHT22;2227;47.810;8.810;2023-01-04T07:20:37;7.40;99.90
4429;DHT22;2227;47.810;8.810;2023-01-04T07:23:05;7.40;99.90
4429;DHT22;2227;47.810;8.810;2023-01-04T07:25:32;7.70;99.90
4429;DHT22;2227;47.810;8.810;2023-01-04T07:27:59;7.50;99.90
4429;DHT22;2227;47.810;8.810;2023-01-04T07:30:26;7.60;99.90
4429;DHT22;2227;47.810;8.810;2023-01-04T07:32:54;7.50;99.90
4429;DHT22;2227;47.810;8.810;2023-01-04T07:35:22;7.50;99.90
4429;DHT22;2227;47.810;8.810;2023-01-04T07:37:49;7.80;99.90
4429;DHT22;2227;47.810;8.810;2023-01-04T07:40:24;7.80;99.90
4429;DHT22;2227;47.810;8.810;2023-01-04T07:42:58;8.00;99.90
4429;DHT22;2227;47.810;8.810;2023-01-04T07:45:25;8.20;99.90
4429;DHT22;2227;47.810;8.810;2023-01-04T07:47:52;8.20;99.90
4429;DHT22;2227;47.810;8.810;2023-01-04T07:50:19;8.20;99.90
4429;DHT22;2227;47.810;8.810;2023-01-04T07:52:46;8.10;99.90
4429;DHT22;2227;47.810;8.810;2023-01-04T07:55:12;8.30;99.90
4429;DHT22;2227;47.810;8.810;2023-01-04T07:57:39;8.30;99.90
4429;DHT22;2227;47.810;8.810;2023-01-04T08:00:06;8.50;99.90
4429;DHT22;2227;47.810;8.810;2023-01-04T08:02:33;8.50;99.90
4429;DHT22;2227;47.810;8.810;2023-01-04T08:05:01;8.50;99.90
4429;DHT22;2227;47.810;8.810;2023-01-04T08:07:28;8.60;99.90
4429;DHT22;2227;47.810;8.810;2023-01-04T08:09:55;8.60;99.90
4429;DHT22;2227;47.810;8.810;2023-01-04T08:12:21;8.40;99.90
4429;DHT22;2227;47.810;8.810;2023-01-04T08:14:48;8.30;99.90
4429;DHT22;2227;47.810;8.810;2023-01-04T08:17:15;8.00;99.90
4429;DHT22;2227;47.810;8.810;2023-01-04T08:19:42;8.00;99.90
4429;DHT22;2227;47.810;8.810;2023-01-04T08:22:08;8.20;99.90
4429;DHT22;2227;47.810;8.810;2023-01-04T08:24:35;8.50;99.90
4429;DHT22;2227;47.810;8.810;2023-01-04T08:27:02;8.20;99.90
4429;DHT22;2227;47.810;8.810;2023-01-04T08:29:29;8.30;99.90
4429;DHT22;2227;47.810;8.810;2023-01-04T08:32:00;8.20;99.90
4429;DHT22;2227;47.810;8.810;2023-01-04T08:34:27;8.20;99.90
4429;DHT22;2227;47.810;8.810;2023-01-04T08:36:55;8.00;99.90
4429;DHT22;2227;47.810;8.810;2023-01-04T08:39:22;8.00;99.90
4429;DHT22;2227;47.810;8.810;2023-01-04T08:41:48;8.10;99.90
4429;DHT22;2227;47.810;8.810;2023-01-04T08:44:39;8.20;99.90
4429;DHT22;2227;47.810;8.810;2023-01-04T08:47:06;8.20;99.90
4429;DHT22;2227;47.810;8.810;2023-01-04T08:49:33;8.10;99.90
4429;DHT22;2227;47.810;8.810;2023-01-04T08:51:59;7.70;99.90
4429;DHT22;2227;47.810;8.810;2023-01-04T08:54:26;7.50;99.90
4429;DHT22;2227;47.810;8.810;2023-01-04T08:56:53;7.60;99.90
4429;DHT22;2227;47.810;8.810;2023-01-04T08:59:19;7.50;99.90
4429;DHT22;2227;47.810;8.810;2023-01-04T09:01:46;7.60;99.90
4429;DHT22;2227;47.810;8.810;2023-01-04T09:04:13;7.60;99.90
4429;DHT22;2227;47.810;8.810;2023-01-04T09:06:40;7.80;99.90
4429;DHT22;2227;47.810;8.810;2023-01-04T09:09:07;7.70;99.90
4429;DHT22;2227;47.810;8.810;2023-01-04T09:11:33;7.80;99.90
4429;DHT22;2227;47.810;8.810;2023-01-04T09:14:00;7.70;99.90
4429;DHT22;2227;47.810;8.810;2023-01-04T09:16:35;7.70;99.90
4429;DHT22;2227;47.810;8.810;2023-01-04T09:19:03;7.60;99.90
4429;DHT22;2227;47.810;8.810;2023-01-04T09:21:30;7.60;99.90
4429;DHT22;2227;47.810;8.810;2023-01-04T09:23:57;7.80;99.90
4429;DHT22;2227;47.810;8.810;2023-01-04T09:26:24;7.70;99.90
4429;DHT22;2227;47.810;8.810;2023-01-04T09:28:53;7.90;99.90
4429;DHT22;2227;47.810;8.810;2023-01-04T09:31:22;8.00;99.90
4429;DHT22;2227;47.810;8.810;2023-01-04T09:33:49;8.10;99.90
4429;DHT22;2227;47.810;8.810;2023-01-04T09:36:36;7.80;99.90
4429;DHT22;2227;47.810;8.810;2023-01-04T09:39:03;7.60;99.90
4429;DHT22;2227;47.810;8.810;2023-01-04T09:41:34;7.70;99.90
4429;DHT22;2227;47.810;8.810;2023-01-04T09:49:44;7.80;99.90
4429;DHT22;2227;47.810;8.810;2023-01-04T09:52:19;8.10;99.90
4429;DHT22;2227;47.810;8.810;2023-01-04T09:54:54;8.20;99.90
4429;DHT22;2227;47.810;8.810;2023-01-04T09:57:48;8.10;99.90
4429;DHT22;2227;47.810;8.810;2023-01-04T10:00:39;8.30;99.90
4429;DHT22;2227;47.810;8.810;2023-01-04T10:05:42;8.30;99.90
4429;DHT22;2227;47.810;8.810;2023-01-04T10:08:16;8.60;99.90
4429;DHT22;2227;47.810;8.810;2023-01-04T10:13:46;8.40;99.90
4429;DHT22;2227;47.810;8.810;2023-01-04T10:22:47;8.60;99.90
4429;DHT22;2227;47.810;8.810;2023-01-04T10:25:35;8.80;99.90
4429;DHT22;2227;47.810;8.810;2023-01-04T10:30:58;9.10;99.90
4429;DHT22;2227;47.810;8.810;2023-01-04T10:34:14;8.90;99.90
4429;DHT22;2227;47.810;8.810;2023-01-04T10:36:45;8.70;99.90
4429;DHT22;2227;47.810;8.810;2023-01-04T10:39:21;8.60;99.90
4429;DHT22;2227;47.810;8.810;2023-01-04T10:42:15;8.80;99.90
4429;DHT22;2227;47.810;8.810;2023-01-04T10:50:13;9.20;99.90
4429;DHT22;2227;47.810;8.810;2023-01-04T10:52:56;9.20;99.90
4429;DHT22;2227;47.810;8.810;2023-01-04T10:58:36;9.40;99.90
4429;DHT22;2227;47.810;8.810;2023-01-04T11:01:47;9.00;99.90
4429;DHT22;2227;47.810;8.810;2023-01-04T11:04:18;8.80;99.90
4429;DHT22;2227;47.810;8.810;2023-01-04T11:06:55;8.80;99.90
4429;DHT22;2227;47.810;8.810;2023-01-04T11:09:31;8.90;99.90
4429;DHT22;2227;47.810;8.810;2023-01-04T11:11:59;9.10;99.90
4429;DHT22;2227;47.810;8.810;2023-01-04T11:14:27;9.20;99.90
4429;DHT22;2227;47.810;8.810;2023-01-04T11:17:03;9.40;99.90
4429;DHT22;2227;47.810;8.810;2023-01-04T11:19:32;9.40;99.90
4429;DHT22;2227;47.810;8.810;2023-01-04T11:24:50;9.60;99.90
4429;DHT22;2227;47.810;8.810;2023-01-04T11:28:01;9.70;99.90
4429;DHT22;2227;47.810;8.810;2023-01-04T11:30:41;9.60;99.90
4429;DHT22;2227;47.810;8.810;2023-01-04T11:33:16;9.90;99.90
4429;DHT22;2227;47.810;8.810;2023-01-04T11:35:49;9.90;99.90
4429;DHT22;2227;47.810;8.810;2023-01-04T11:38:21;9.70;99.90
4429;DHT22;2227;47.810;8.810;2023-01-04T11:41:00;9.60;99.90
4429;DHT22;2227;47.810;8.810;2023-01-04T11:43:34;9.50;99.90
4429;DHT22;2227;47.810;8.810;2023-01-04T11:46:06;9.40;99.90
4429;DHT22;2227;47.810;8.810;2023-01-04T11:48:39;9.20;99.90
4429;DHT22;2227;47.810;8.810;2023-01-04T11:53:45;9.10;99.90
4429;DHT22;2227;47.810;8.810;2023-01-04T11:58:41;8.70;99.90
4429;DHT22;2227;47.810;8.810;2023-01-04T12:01:21;8.90;99.90
4429;DHT22;2227;47.810;8.810;2023-01-04T12:03:48;9.20;99.90
4429;DHT22;2227;47.810;8.810;2023-01-04T12:06:29;9.00;99.90
4429;DHT22;2227;47.810;8.810;2023-01-04T12:08:58;9.00;99.90
4429;DHT22;2227;47.810;8.810;2023-01-04T12:11:46;9.00;99.90
4429;DHT22;2227;47.810;8.810;2023-01-04T12:14:22;9.00;99.90
4429;DHT22;2227;47.810;8.810;2023-01-04T12:17:10;9.10;99.90
4429;DHT22;2227;47.810;8.810;2023-01-04T12:19:43;9.30;99.90
4429;DHT22;2227;47.810;8.810;2023-01-04T12:22:34;9.40;99.90
4429;DHT22;2227;47.810;8.810;2023-01-04T12:25:31;9.60;99.90
4429;DHT22;2227;47.810;8.810;2023-01-04T12:27:55;9.60;99.90
4429;DHT22;2227;47.810;8.810;2023-01-04T12:35:58;9.10;99.90
4429;DHT22;2227;47.810;8.810;2023-01-04T12:41:22;8.90;99.90
4429;DHT22;2227;47.810;8.810;2023-01-04T12:43:49;9.00;99.90
4429;DHT22;2227;47.810;8.810;2023-01-04T12:46:40;9.00;99.90
4429;DHT22;2227;47.810;8.810;2023-01-04T13:01:28;9.80;99.90
4429;DHT22;2227;47.810;8.810;2023-01-04T13:03:57;9.80;99.90
4429;DHT22;2227;47.810;8.810;2023-01-04T13:06:34;9.60;99.90
4429;DHT22;2227;47.810;8.810;2023-01-04T13:09:14;9.40;99.90
4429;DHT22;2227;47.810;8.810;2023-01-04T13:11:56;9.70;99.90
4429;DHT22;2227;47.810;8.810;2023-01-04T13:14:42;9.30;99.90
4429;DHT22;2227;47.810;8.810;2023-01-04T13:17:19;9.30;99.90
4429;DHT22;2227;47.810;8.810;2023-01-04T13:19:46;9.40;99.90
4429;DHT22;2227;47.810;8.810;2023-01-04T13:22:21;9.50;99.90
4429;DHT22;2227;47.810;8.810;2023-01-04T13:24:56;9.80;99.90
4429;DHT22;2227;47.810;8.810;2023-01-04T13:27:25;9.90;99.90
4429;DHT22;2227;47.810;8.810;2023-01-04T13:29:52;9.80;99.90
4429;DHT22;2227;47.810;8.810;2023-01-04T13:32:32;9.90;99.90
4429;DHT22;2227;47.810;8.810;2023-01-04T13:35:22;9.90;99.90
4429;DHT22;2227;47.810;8.810;2023-01-04T13:37:49;10.00;99.90
4429;DHT22;2227;47.810;8.810;2023-01-04T13:40:31;10.10;99.90
4429;DHT22;2227;47.810;8.810;2023-01-04T13:46:04;10.40;99.90
4429;DHT22;2227;47.810;8.810;2023-01-04T13:48:38;10.60;99.90
4429;DHT22;2227;47.810;8.810;2023-01-04T13:53:57;10.30;99.90
4429;DHT22;2227;47.810;8.810;2023-01-04T13:56:32;10.50;99.90
4429;DHT22;2227;47.810;8.810;2023-01-04T13:58:59;10.60;99.90
4429;DHT22;2227;47.810;8.810;2023-01-04T14:01:30;10.80;99.90
4429;DHT22;2227;47.810;8.810;2023-01-04T14:03:58;11.00;99.90
4429;DHT22;2227;47.810;8.810;2023-01-04T14:06:34;11.00;99.90
4429;DHT22;2227;47.810;8.810;2023-01-04T14:11:42;10.50;99.90
4429;DHT22;2227;47.810;8.810;2023-01-04T14:20:03;9.90;99.90
4429;DHT22;2227;47.810;8.810;2023-01-04T14:22:40;9.80;99.90
4429;DHT22;2227;47.810;8.810;2023-01-04T14:30:50;9.90;99.90
4429;DHT22;2227;47.810;8.810;2023-01-04T14:33:19;9.70;99.90
4429;DHT22;2227;47.810;8.810;2023-01-04T14:38:39;9.70;99.90
4429;DHT22;2227;47.810;8.810;2023-01-04T14:41:33;9.60;99.90
4429;DHT22;2227;47.810;8.810;2023-01-04T14:46:37;9.60;99.90
4429;DHT22;2227;47.810;8.810;2023-01-04T14:49:04;9.60;99.90
4429;DHT22;2227;47.810;8.810;2023-01-04T14:51:39;9.60;99.90
4429;DHT22;2227;47.810;8.810;2023-01-04T14:54:10;9.60;99.90
4429;DHT22;2227;47.810;8.810;2023-01-04T14:56:37;9.70;99.90
4429;DHT22;2227;47.810;8.810;2023-01-04T14:59:04;9.70;99.90
4429;DHT22;2227;47.810;8.810;2023-01-04T15:01:31;9.60;99.90
4429;DHT22;2227;47.810;8.810;2023-01-04T15:03:58;9.60;99.90
4429;DHT22;2227;47.810;8.810;2023-01-04T15:06:26;9.70;99.90
4429;DHT22;2227;47.810;8.810;2023-01-04T15:08:53;9.60;99.90
4429;DHT22;2227;47.810;8.810;2023-01-04T15:11:19;9.60;99.90
4429;DHT22;2227;47.810;8.810;2023-01-04T15:13:46;9.60;99.90
4429;DHT22;2227;47.810;8.810;2023-01-04T15:16:14;9.60;99.90
4429;DHT22;2227;47.810;8.810;2023-01-04T15:18:43;9.70;99.90
4429;DHT22;2227;47.810;8.810;2023-01-04T15:21:11;9.70;99.90
4429;DHT22;2227;47.810;8.810;2023-01-04T15:23:38;9.60;99.90
4429;DHT22;2227;47.810;8.810;2023-01-04T15:26:06;9.60;99.90
4429;DHT22;2227;47.810;8.810;2023-01-04T15:28:34;9.60;99.90
4429;DHT22;2227;47.810;8.810;2023-01-04T15:31:09;9.70;99.90
4429;DHT22;2227;47.810;8.810;2023-01-04T15:33:36;9.70;99.90
4429;DHT22;2227;47.810;8.810;2023-01-04T15:36:06;9.60;99.90
4429;DHT22;2227;47.810;8.810;2023-01-04T15:38:33;9.70;99.90
4429;DHT22;2227;47.810;8.810;2023-01-04T15:41:05;9.60;99.90
4429;DHT22;2227;47.810;8.810;2023-01-04T15:43:33;9.70;99.90
4429;DHT22;2227;47.810;8.810;2023-01-04T15:46:06;9.70;99.90
4429;DHT22;2227;47.810;8.810;2023-01-04T15:48:34;9.60;99.90
4429;DHT22;2227;47.810;8.810;2023-01-04T15:51:03;9.70;99.90
4429;DHT22;2227;47.810;8.810;2023-01-04T15:53:31;9.70;99.90
4429;DHT22;2227;47.810;8.810;2023-01-04T15:56:10;9.80;99.90
4429;DHT22;2227;47.810;8.810;2023-01-04T15:58:37;9.60;99.90
4429;DHT22;2227;47.810;8.810;2023-01-04T16:01:13;9.60;99.90
4429;DHT22;2227;47.810;8.810;2023-01-04T16:03:40;9.60;99.90
4429;DHT22;2227;47.810;8.810;2023-01-04T16:06:12;9.60;99.90
4429;DHT22;2227;47.810;8.810;2023-01-04T16:08:39;9.50;99.90
4429;DHT22;2227;47.810;8.810;2023-01-04T16:11:14;9.60;99.90
4429;DHT22;2227;47.810;8.810;2023-01-04T16:13:42;9.50;99.90
4429;DHT22;2227;47.810;8.810;2023-01-04T16:16:09;9.40;99.90
4429;DHT22;2227;47.810;8.810;2023-01-04T16:18:36;9.50;99.90
4429;DHT22;2227;47.810;8.810;2023-01-04T16:21:07;9.60;99.90
4429;DHT22;2227;47.810;8.810;2023-01-04T16:23:35;9.70;99.90
4429;DHT22;2227;47.810;8.810;2023-01-04T16:26:09;9.70;99.90
4429;DHT22;2227;47.810;8.810;2023-01-04T16:28:36;9.80;99.90
4429;DHT22;2227;47.810;8.810;2023-01-04T16:31:04;9.90;99.90
4429;DHT22;2227;47.810;8.810;2023-01-04T16:33:32;9.60;99.90
4429;DHT22;2227;47.810;8.810;2023-01-04T16:36:04;9.70;99.90
4429;DHT22;2227;47.810;8.810;2023-01-04T16:38:34;9.60;99.90
4429;DHT22;2227;47.810;8.810;2023-01-04T16:41:02;9.70;99.90
4429;DHT22;2227;47.810;8.810;2023-01-04T16:43:29;9.60;99.90
4429;DHT22;2227;47.810;8.810;2023-01-04T16:49:04;9.80;99.90
4429;DHT22;2227;47.810;8.810;2023-01-04T16:51:33;9.60;99.90
4429;DHT22;2227;47.810;8.810;2023-01-04T16:54:01;9.70;99.90
4429;DHT22;2227;47.810;8.810;2023-01-04T16:56:30;9.70;99.90
4429;DHT22;2227;47.810;8.810;2023-01-04T16:58:57;9.70;99.90
4429;DHT22;2227;47.810;8.810;2023-01-04T17:01:27;9.80;99.90
4429;DHT22;2227;47.810;8.810;2023-01-04T17:04:00;9.80;99.90
4429;DHT22;2227;47.810;8.810;2023-01-04T17:06:31;10.00;99.90
4429;DHT22;2227;47.810;8.810;2023-01-04T17:08:59;9.90;99.90
4429;DHT22;2227;47.810;8.810;2023-01-04T17:11:28;9.90;99.90
4429;DHT22;2227;47.810;8.810;2023-01-04T17:14:15;9.90;99.90
4429;DHT22;2227;47.810;8.810;2023-01-04T17:16:42;9.70;99.90
4429;DHT22;2227;47.810;8.810;2023-01-04T17:19:09;9.70;99.90
4429;DHT22;2227;47.810;8.810;2023-01-04T17:21:36;9.90;99.90
4429;DHT22;2227;47.810;8.810;2023-01-04T17:24:02;10.10;99.90
4429;DHT22;2227;47.810;8.810;2023-01-04T17:26:31;9.70;99.90
4429;DHT22;2227;47.810;8.810;2023-01-04T17:28:59;9.70;99.90
4429;DHT22;2227;47.810;8.810;2023-01-04T17:31:31;9.60;99.90
4429;DHT22;2227;47.810;8.810;2023-01-04T17:33:58;9.50;99.90
4429;DHT22;2227;47.810;8.810;2023-01-04T17:36:25;9.60;99.90
4429;DHT22;2227;47.810;8.810;2023-01-04T17:38:52;9.50;99.90
4429;DHT22;2227;47.810;8.810;2023-01-04T17:41:21;9.50;99.90
4429;DHT22;2227;47.810;8.810;2023-01-04T17:43:50;9.40;99.90
4429;DHT22;2227;47.810;8.810;2023-01-04T17:46:19;9.30;99.90
4429;DHT22;2227;47.810;8.810;2023-01-04T17:48:49;9.40;99.90
4429;DHT22;2227;47.810;8.810;2023-01-04T17:51:36;9.30;99.90
4429;DHT22;2227;47.810;8.810;2023-01-04T17:54:04;9.50;99.90
4429;DHT22;2227;47.810;8.810;2023-01-04T17:56:32;9.40;99.90
4429;DHT22;2227;47.810;8.810;2023-01-04T17:59:01;9.40;99.90
4429;DHT22;2227;47.810;8.810;2023-01-04T18:01:29;9.40;99.90
4429;DHT22;2227;47.810;8.810;2023-01-04T18:03:57;9.40;99.90
4429;DHT22;2227;47.810;8.810;2023-01-04T18:06:27;9.50;99.90
4429;DHT22;2227;47.810;8.810;2023-01-04T18:08:55;9.70;99.90
4429;DHT22;2227;47.810;8.810;2023-01-04T18:11:23;9.60;99.90
4429;DHT22;2227;47.810;8.810;2023-01-04T18:13:50;9.80;99.90
4429;DHT22;2227;47.810;8.810;2023-01-04T18:16:23;9.90;99.90
4429;DHT22;2227;47.810;8.810;2023-01-04T18:18:55;10.00;99.90
4429;DHT22;2227;47.810;8.810;2023-01-04T18:21:24;10.20;99.90
4429;DHT22;2227;47.810;8.810;2023-01-04T18:24:00;10.20;99.90
4429;DHT22;2227;47.810;8.810;2023-01-04T18:26:47;10.40;99.90
4429;DHT22;2227;47.810;8.810;2023-01-04T18:29:33;10.40;99.90
4429;DHT22;2227;47.810;8.810;2023-01-04T18:32:00;10.40;99.90
4429;DHT22;2227;47.810;8.810;2023-01-04T18:34:27;9.90;99.90
4429;DHT22;2227;47.810;8.810;2023-01-04T18:36:53;10.10;99.90
4429;DHT22;2227;47.810;8.810;2023-01-04T18:39:20;10.10;99.90
4429;DHT22;2227;47.810;8.810;2023-01-04T18:41:47;10.10;99.90
4429;DHT22;2227;47.810;8.810;2023-01-04T18:44:14;10.20;99.90
4429;DHT22;2227;47.810;8.810;2023-01-04T18:47:01;10.30;99.90
4429;DHT22;2227;47.810;8.810;2023-01-04T18:49:28;10.30;99.90
4429;DHT22;2227;47.810;8.810;2023-01-04T18:51:54;10.50;99.90
4429;DHT22;2227;47.810;8.810;2023-01-04T18:54:21;10.20;99.90
4429;DHT22;2227;47.810;8.810;2023-01-04T18:56:48;10.20;99.90
4429;DHT22;2227;47.810;8.810;2023-01-04T18:59:15;10.10;99.90
4429;DHT22;2227;47.810;8.810;2023-01-04T19:01:45;9.90;99.90
4429;DHT22;2227;47.810;8.810;2023-01-04T19:04:12;9.70;99.90
4429;DHT22;2227;47.810;8.810;2023-01-04T19:06:41;9.70;99.90
4429;DHT22;2227;47.810;8.810;2023-01-04T19:09:09;10.00;99.90
4429;DHT22;2227;47.810;8.810;2023-01-04T19:11:36;10.30;99.90
4429;DHT22;2227;47.810;8.810;2023-01-04T19:14:03;10.20;99.90
4429;DHT22;2227;47.810;8.810;2023-01-04T19:16:29;10.30;99.90
4429;DHT22;2227;47.810;8.810;2023-01-04T19:18:58;10.40;99.90
4429;DHT22;2227;47.810;8.810;2023-01-04T19:21:25;10.40;99.90
4429;DHT22;2227;47.810;8.810;2023-01-04T19:23:51;10.50;99.90
4429;DHT22;2227;47.810;8.810;2023-01-04T19:26:19;10.60;99.90
4429;DHT22;2227;47.810;8.810;2023-01-04T19:28:46;10.70;99.90
4429;DHT22;2227;47.810;8.810;2023-01-04T19:31:13;10.60;99.90
4429;DHT22;2227;47.810;8.810;2023-01-04T19:33:40;10.70;99.90
4429;DHT22;2227;47.810;8.810;2023-01-04T19:36:09;10.40;99.90
4429;DHT22;2227;47.810;8.810;2023-01-04T19:38:37;10.40;99.90
4429;DHT22;2227;47.810;8.810;2023-01-04T19:41:04;10.70;99.90
4429;DHT22;2227;47.810;8.810;2023-01-04T19:43:32;10.90;99.90
4429;DHT22;2227;47.810;8.810;2023-01-04T19:45:59;10.90;99.90
4429;DHT22;2227;47.810;8.810;2023-01-04T19:48:26;10.80;99.90
4429;DHT22;2227;47.810;8.810;2023-01-04T19:51:12;10.70;99.90
4429;DHT22;2227;47.810;8.810;2023-01-04T19:53:39;10.50;99.90
4429;DHT22;2227;47.810;8.810;2023-01-04T19:56:07;10.80;99.90
4429;DHT22;2227;47.810;8.810;2023-01-04T19:58:35;10.80;99.90
4429;DHT22;2227;47.810;8.810;2023-01-04T20:01:03;10.70;99.90
4429;DHT22;2227;47.810;8.810;2023-01-04T20:03:31;10.60;99.90
4429;DHT22;2227;47.810;8.810;2023-01-04T20:06:02;10.70;99.90
4429;DHT22;2227;47.810;8.810;2023-01-04T20:08:29;10.70;99.90
4429;DHT22;2227;47.810;8.810;2023-01-04T20:10:57;10.50;99.90
4429;DHT22;2227;47.810;8.810;2023-01-04T20:13:26;10.40;99.90
4429;DHT22;2227;47.810;8.810;2023-01-04T20:15:53;10.60;99.90
4429;DHT22;2227;47.810;8.810;2023-01-04T20:18:21;10.60;99.90
4429;DHT22;2227;47.810;8.810;2023-01-04T20:20:49;10.50;99.90
4429;DHT22;2227;47.810;8.810;2023-01-04T20:23:18;10.60;99.90
4429;DHT22;2227;47.810;8.810;2023-01-04T20:25:46;10.70;99.90
4429;DHT22;2227;47.810;8.810;2023-01-04T20:28:14;10.80;99.90
4429;DHT22;2227;47.810;8.810;2023-01-04T20:30:41;10.90;99.90
4429;DHT22;2227;47.810;8.810;2023-01-04T20:33:08;11.00;99.90
4429;DHT22;2227;47.810;8.810;2023-01-04T20:35:42;10.70;99.90
4429;DHT22;2227;47.810;8.810;2023-01-04T20:38:10;10.50;99.90
4429;DHT22;2227;47.810;8.810;2023-01-04T20:40:37;10.30;99.90
4429;DHT22;2227;47.810;8.810;2023-01-04T20:43:04;10.20;99.90
4429;DHT22;2227;47.810;8.810;2023-01-04T20:45:50;10.30;99.90
4429;DHT22;2227;47.810;8.810;2023-01-04T20:48:17;10.30;99.90
4429;DHT22;2227;47.810;8.810;2023-01-04T20:50:44;10.30;99.90
4429;DHT22;2227;47.810;8.810;2023-01-04T20:53:10;10.30;99.90
4429;DHT22;2227;47.810;8.810;2023-01-04T20:55:40;10.30;99.90
4429;DHT22;2227;47.810;8.810;2023-01-04T20:58:08;10.40;99.90
4429;DHT22;2227;47.810;8.810;2023-01-04T21:00:36;10.60;99.90
4429;DHT22;2227;47.810;8.810;2023-01-04T21:03:05;10.70;99.90
4429;DHT22;2227;47.810;8.810;2023-01-04T21:05:36;10.50;99.90
4429;DHT22;2227;47.810;8.810;2023-01-04T21:08:04;10.60;99.90
4429;DHT22;2227;47.810;8.810;2023-01-04T21:10:34;10.50;99.90
4429;DHT22;2227;47.810;8.810;2023-01-04T21:13:01;10.50;99.90
4429;DHT22;2227;47.810;8.810;2023-01-04T21:15:29;10.70;99.90
4429;DHT22;2227;47.810;8.810;2023-01-04T21:17:56;10.70;99.90
4429;DHT22;2227;47.810;8.810;2023-01-04T21:20:22;10.80;99.90
4429;DHT22;2227;47.810;8.810;2023-01-04T21:22:50;10.30;99.90
4429;DHT22;2227;47.810;8.810;2023-01-04T21:25:16;10.30;99.90
4429;DHT22;2227;47.810;8.810;2023-01-04T21:27:43;10.10;99.90
4429;DHT22;2227;47.810;8.810;2023-01-04T21:30:10;10.20;99.90
4429;DHT22;2227;47.810;8.810;2023-01-04T21:32:37;10.40;99.90
4429;DHT22;2227;47.810;8.810;2023-01-04T21:35:04;10.30;99.90
4429;DHT22;2227;47.810;8.810;2023-01-04T21:37:31;10.30;99.90
4429;DHT22;2227;47.810;8.810;2023-01-04T21:39:58;10.20;99.90
4429;DHT22;2227;47.810;8.810;2023-01-04T21:42:24;10.10;99.90
4429;DHT22;2227;47.810;8.810;2023-01-04T21:44:51;10.20;99.90
4429;DHT22;2227;47.810;8.810;2023-01-04T21:47:17;10.00;99.90
4429;DHT22;2227;47.810;8.810;2023-01-04T21:49:44;10.00;99.90
4429;DHT22;2227;47.810;8.810;2023-01-04T21:52:11;10.20;99.90
4429;DHT22;2227;47.810;8.810;2023-01-04T21:54:38;10.20;99.90
4429;DHT22;2227;47.810;8.810;2023-01-04T21:57:05;10.30;99.90
4429;DHT22;2227;47.810;8.810;2023-01-04T21:59:34;10.40;99.90
4429;DHT22;2227;47.810;8.810;2023-01-04T22:02:01;10.20;99.90
4429;DHT22;2227;47.810;8.810;2023-01-04T22:04:29;10.10;99.90
4429;DHT22;2227;47.810;8.810;2023-01-04T22:06:56;10.00;99.90
4429;DHT22;2227;47.810;8.810;2023-01-04T22:09:23;10.10;99.90
4429;DHT22;2227;47.810;8.810;2023-01-04T22:11:49;10.00;99.90
4429;DHT22;2227;47.810;8.810;2023-01-04T22:14:17;9.90;99.90
4429;DHT22;2227;47.810;8.810;2023-01-04T22:16:43;9.70;99.90
4429;DHT22;2227;47.810;8.810;2023-01-04T22:19:11;9.90;99.90
4429;DHT22;2227;47.810;8.810;2023-01-04T22:21:39;10.10;99.90
4429;DHT22;2227;47.810;8.810;2023-01-04T22:24:07;10.30;99.90
4429;DHT22;2227;47.810;8.810;2023-01-04T22:26:35;10.10;99.90
4429;DHT22;2227;47.810;8.810;2023-01-04T22:29:02;10.20;99.90
4429;DHT22;2227;47.810;8.810;2023-01-04T22:31:29;10.20;99.90
4429;DHT22;2227;47.810;8.810;2023-01-04T22:33:56;10.10;99.90
4429;DHT22;2227;47.810;8.810;2023-01-04T22:36:23;10.30;99.90
4429;DHT22;2227;47.810;8.810;2023-01-04T22:38:51;10.50;99.90
4429;DHT22;2227;47.810;8.810;2023-01-04T22:41:20;10.30;99.90